sensor_id;sensor_type;location;lat;lon;timestamp;pressure;altitude;pressure_sealevel;temperature
45976;BMP280;31696;42.668;23.322;2023-03-12T00:01:56;93692.44;;;6.07
45976;BMP280;31696;42.668;23.322;2023-03-12T00:04:01;93716.84;;;6.28
45976;BMP280;31696;42.668;23.322;2023-03-12T00:06:02;93687.22;;;5.61
45976;BMP280;31696;42.668;23.322;2023-03-12T00:08:03;93697.03;;;5.63
45976;BMP280;31696;42.668;23.322;2023-03-12T00:10:04;93706.16;;;5.28
45976;BMP280;31696;42.668;23.322;2023-03-12T00:12:05;93707.22;;;4.96
45976;BMP280;31696;42.668;23.322;2023-03-12T00:14:05;93709.91;;;5.70
45976;BMP280;31696;42.668;23.322;2023-03-12T00:16:06;93715.81;;;5.93
45976;BMP280;31696;42.668;23.322;2023-03-12T00:18:07;93725.47;;;5.50
45976;BMP280;31696;42.668;23.322;2023-03-12T00:20:08;93776.69;;;6.34
45976;BMP280;31696;42.668;23.322;2023-03-12T00:22:09;93742.13;;;6.15
45976;BMP280;31696;42.668;23.322;2023-03-12T00:24:09;93751.50;;;5.89
45976;BMP280;31696;42.668;23.322;2023-03-12T00:26:10;93747.94;;;5.49
45976;BMP280;31696;42.668;23.322;2023-03-12T00:28:11;93755.81;;;5.36
45976;BMP280;31696;42.668;23.322;2023-03-12T00:30:11;93761.56;;;5.65
45976;BMP280;31696;42.668;23.322;2023-03-12T00:32:12;93759.75;;;5.88
45976;BMP280;31696;42.668;23.322;2023-03-12T00:34:12;93769.19;;;5.85
45976;BMP280;31696;42.668;23.322;2023-03-12T00:36:13;93764.22;;;5.87
45976;BMP280;31696;42.668;23.322;2023-03-12T00:38:13;93765.03;;;5.75
45976;BMP280;31696;42.668;23.322;2023-03-12T00:40:14;93809.22;;;5.86
45976;BMP280;31696;42.668;23.322;2023-03-12T00:42:14;93762.97;;;5.30
45976;BMP280;31696;42.668;23.322;2023-03-12T00:44:15;93761.47;;;5.85
45976;BMP280;31696;42.668;23.322;2023-03-12T00:46:15;93758.44;;;5.51
45976;BMP280;31696;42.668;23.322;2023-03-12T00:48:16;93747.97;;;5.57
45976;BMP280;31696;42.668;23.322;2023-03-12T00:50:17;93755.88;;;5.51
45976;BMP280;31696;42.668;23.322;2023-03-12T00:52:17;93750.06;;;5.58
45976;BMP280;31696;42.668;23.322;2023-03-12T00:54:18;93735.81;;;4.85
45976;BMP280;31696;42.668;23.322;2023-03-12T00:56:18;93745.97;;;5.70
45976;BMP280;31696;42.668;23.322;2023-03-12T00:58:18;93740.63;;;5.17
45976;BMP280;31696;42.668;23.322;2023-03-12T01:00:19;93737.59;;;5.34
45976;BMP280;31696;42.668;23.322;2023-03-12T01:02:20;93763.41;;;4.85
45976;BMP280;31696;42.668;23.322;2023-03-12T01:04:20;93758.53;;;5.81
45976;BMP280;31696;42.668;23.322;2023-03-12T01:06:21;93758.03;;;5.04
45976;BMP280;31696;42.668;23.322;2023-03-12T01:08:22;93751.19;;;5.42
45976;BMP280;31696;42.668;23.322;2023-03-12T01:10:22;93755.88;;;5.51
45976;BMP280;31696;42.668;23.322;2023-03-12T01:12:23;93762.59;;;4.97
45976;BMP280;31696;42.668;23.322;2023-03-12T01:14:23;93768.50;;;5.06
45976;BMP280;31696;42.668;23.322;2023-03-12T01:16:25;93778.84;;;4.92
45976;BMP280;31696;42.668;23.322;2023-03-12T01:18:27;93772.63;;;5.37
45976;BMP280;31696;42.668;23.322;2023-03-12T01:20:27;93778.91;;;5.28
45976;BMP280;31696;42.668;23.322;2023-03-12T01:22:28;93797.69;;;5.44
45976;BMP280;31696;42.668;23.322;2023-03-12T01:24:28;93782.69;;;5.63
45976;BMP280;31696;42.668;23.322;2023-03-12T01:26:29;93782.19;;;5.29
45976;BMP280;31696;42.668;23.322;2023-03-12T01:28:29;93789.75;;;5.34
45976;BMP280;31696;42.668;23.322;2023-03-12T01:30:30;93794.53;;;5.23
45976;BMP280;31696;42.668;23.322;2023-03-12T01:32:30;93786.03;;;5.43
45976;BMP280;31696;42.668;23.322;2023-03-12T01:34:31;93776.94;;;5.42
45976;BMP280;31696;42.668;23.322;2023-03-12T01:36:32;93784.22;;;4.74
45976;BMP280;31696;42.668;23.322;2023-03-12T01:38:33;93771.72;;;4.70
45976;BMP280;31696;42.668;23.322;2023-03-12T01:40:34;93781.72;;;5.10
45976;BMP280;31696;42.668;23.322;2023-03-12T01:42:34;93779.78;;;5.03
45976;BMP280;31696;42.668;23.322;2023-03-12T01:44:54;93779.72;;;5.16
45976;BMP280;31696;42.668;23.322;2023-03-12T01:46:55;93771.13;;;4.92
45976;BMP280;31696;42.668;23.322;2023-03-12T01:51:02;93788.72;;;5.30
45976;BMP280;31696;42.668;23.322;2023-03-12T01:53:04;93782.28;;;4.87
45976;BMP280;31696;42.668;23.322;2023-03-12T01:55:06;93773.38;;;4.88
45976;BMP280;31696;42.668;23.322;2023-03-12T01:57:12;93786.53;;;5.13
45976;BMP280;31696;42.668;23.322;2023-03-12T01:59:48;93791.19;;;5.15
45976;BMP280;31696;42.668;23.322;2023-03-12T02:01:40;93792.19;;;4.83
45976;BMP280;31696;42.668;23.322;2023-03-12T02:03:41;93838.91;;;5.16
45976;BMP280;31696;42.668;23.322;2023-03-12T02:05:52;93784.28;;;5.10
45976;BMP280;31696;42.668;23.322;2023-03-12T02:07:53;93781.50;;;5.00
45976;BMP280;31696;42.668;23.322;2023-03-12T02:09:55;93766.22;;;5.30
45976;BMP280;31696;42.668;23.322;2023-03-12T02:11:55;93764.19;;;5.01
45976;BMP280;31696;42.668;23.322;2023-03-12T02:13:56;93760.03;;;5.26
45976;BMP280;31696;42.668;23.322;2023-03-12T02:15:56;93777.63;;;5.14
45976;BMP280;31696;42.668;23.322;2023-03-12T02:17:57;93778.34;;;4.66
45976;BMP280;31696;42.668;23.322;2023-03-12T02:20:05;93775.09;;;4.93
45976;BMP280;31696;42.668;23.322;2023-03-12T02:22:10;93779.44;;;5.27
45976;BMP280;31696;42.668;23.322;2023-03-12T02:24:24;93785.06;;;5.18
45976;BMP280;31696;42.668;23.322;2023-03-12T02:26:27;93783.28;;;5.41
45976;BMP280;31696;42.668;23.322;2023-03-12T02:28:29;93788.16;;;5.24
45976;BMP280;31696;42.668;23.322;2023-03-12T02:30:32;93785.22;;;4.91
45976;BMP280;31696;42.668;23.322;2023-03-12T02:32:34;93854.00;;;5.68
45976;BMP280;31696;42.668;23.322;2023-03-12T02:34:37;93792.84;;;5.05
45976;BMP280;31696;42.668;23.322;2023-03-12T02:36:38;93791.50;;;4.83
45976;BMP280;31696;42.668;23.322;2023-03-12T02:38:42;93801.94;;;5.34
45976;BMP280;31696;42.668;23.322;2023-03-12T02:40:43;93800.72;;;5.27
45976;BMP280;31696;42.668;23.322;2023-03-12T02:42:45;93801.78;;;5.04
45976;BMP280;31696;42.668;23.322;2023-03-12T02:44:45;93805.97;;;4.93
45976;BMP280;31696;42.668;23.322;2023-03-12T02:46:47;93812.34;;;5.21
45976;BMP280;31696;42.668;23.322;2023-03-12T02:48:48;93819.03;;;4.95
45976;BMP280;31696;42.668;23.322;2023-03-12T02:50:48;93807.91;;;5.21
45976;BMP280;31696;42.668;23.322;2023-03-12T02:52:49;93805.72;;;5.33
45976;BMP280;31696;42.668;23.322;2023-03-12T02:54:50;93811.88;;;4.06
45976;BMP280;31696;42.668;23.322;2023-03-12T02:56:51;93811.78;;;4.86
45976;BMP280;31696;42.668;23.322;2023-03-12T02:58:52;93855.53;;;5.15
45976;BMP280;31696;42.668;23.322;2023-03-12T03:00:53;93802.56;;;4.49
45976;BMP280;31696;42.668;23.322;2023-03-12T03:02:54;93797.00;;;5.36
45976;BMP280;31696;42.668;23.322;2023-03-12T03:04:54;93792.88;;;4.42
45976;BMP280;31696;42.668;23.322;2023-03-12T03:06:55;93784.31;;;4.81
45976;BMP280;31696;42.668;23.322;2023-03-12T03:08:55;93787.91;;;5.07
45976;BMP280;31696;42.668;23.322;2023-03-12T03:10:56;93837.72;;;5.17
45976;BMP280;31696;42.668;23.322;2023-03-12T03:12:57;93785.13;;;5.05
45976;BMP280;31696;42.668;23.322;2023-03-12T03:14:57;93788.69;;;5.22
45976;BMP280;31696;42.668;23.322;2023-03-12T03:16:58;93779.66;;;4.59
45976;BMP280;31696;42.668;23.322;2023-03-12T03:18:58;93769.63;;;4.48
45976;BMP280;31696;42.668;23.322;2023-03-12T03:21:04;93773.91;;;4.94
45976;BMP280;31696;42.668;23.322;2023-03-12T03:23:06;93784.34;;;4.27
45976;BMP280;31696;42.668;23.322;2023-03-12T03:25:08;93773.75;;;4.72
45976;BMP280;31696;42.668;23.322;2023-03-12T03:27:08;93782.69;;;4.71
45976;BMP280;31696;42.668;23.322;2023-03-12T03:29:09;93850.13;;;5.26
45976;BMP280;31696;42.668;23.322;2023-03-12T03:31:09;93800.91;;;5.01
45976;BMP280;31696;42.668;23.322;2023-03-12T03:33:11;93800.66;;;4.91
45976;BMP280;31696;42.668;23.322;2023-03-12T03:35:12;93851.97;;;5.46
45976;BMP280;31696;42.668;23.322;2023-03-12T03:37:12;93866.53;;;5.15
45976;BMP280;31696;42.668;23.322;2023-03-12T03:39:13;93818.78;;;4.44
45976;BMP280;31696;42.668;23.322;2023-03-12T03:41:17;93859.31;;;4.72
45976;BMP280;31696;42.668;23.322;2023-03-12T03:43:18;93803.91;;;4.92
45976;BMP280;31696;42.668;23.322;2023-03-12T03:45:19;93805.63;;;4.69
45976;BMP280;31696;42.668;23.322;2023-03-12T03:47:19;93828.75;;;4.48
45976;BMP280;31696;42.668;23.322;2023-03-12T03:49:20;93817.41;;;4.43
45976;BMP280;31696;42.668;23.322;2023-03-12T03:51:21;93816.59;;;4.48
45976;BMP280;31696;42.668;23.322;2023-03-12T03:53:25;93825.81;;;4.44
45976;BMP280;31696;42.668;23.322;2023-03-12T03:55:25;93821.28;;;4.78
45976;BMP280;31696;42.668;23.322;2023-03-12T03:57:26;93825.06;;;4.23
45976;BMP280;31696;42.668;23.322;2023-03-12T03:59:27;93823.50;;;4.54
45976;BMP280;31696;42.668;23.322;2023-03-12T04:01:27;93834.41;;;4.67
45976;BMP280;31696;42.668;23.322;2023-03-12T04:03:29;93832.47;;;3.92
45976;BMP280;31696;42.668;23.322;2023-03-12T04:05:30;93839.28;;;4.58
45976;BMP280;31696;42.668;23.322;2023-03-12T04:07:31;93834.03;;;4.63
45976;BMP280;31696;42.668;23.322;2023-03-12T04:09:31;93823.25;;;3.97
45976;BMP280;31696;42.668;23.322;2023-03-12T04:11:32;93838.31;;;4.61
45976;BMP280;31696;42.668;23.322;2023-03-12T04:13:33;93837.50;;;4.86
45976;BMP280;31696;42.668;23.322;2023-03-12T04:15:34;93845.72;;;3.83
45976;BMP280;31696;42.668;23.322;2023-03-12T04:17:34;93849.28;;;3.93
45976;BMP280;31696;42.668;23.322;2023-03-12T04:19:35;93850.53;;;3.87
45976;BMP280;31696;42.668;23.322;2023-03-12T04:21:38;93863.19;;;4.45
45976;BMP280;31696;42.668;23.322;2023-03-12T04:23:39;93864.00;;;4.27
45976;BMP280;31696;42.668;23.322;2023-03-12T04:25:40;93864.97;;;4.50
45976;BMP280;31696;42.668;23.322;2023-03-12T04:27:41;93861.84;;;4.18
45976;BMP280;31696;42.668;23.322;2023-03-12T04:29:41;93877.00;;;4.42
45976;BMP280;31696;42.668;23.322;2023-03-12T04:31:43;93924.47;;;4.41
45976;BMP280;31696;42.668;23.322;2023-03-12T04:33:43;93925.59;;;4.32
45976;BMP280;31696;42.668;23.322;2023-03-12T04:35:53;93874.03;;;4.04
45976;BMP280;31696;42.668;23.322;2023-03-12T04:37:54;93882.50;;;4.25
45976;BMP280;31696;42.668;23.322;2023-03-12T04:39:55;93889.72;;;4.61
45976;BMP280;31696;42.668;23.322;2023-03-12T04:41:55;93946.91;;;4.87
45976;BMP280;31696;42.668;23.322;2023-03-12T04:43:55;93896.88;;;4.08
45976;BMP280;31696;42.668;23.322;2023-03-12T04:45:56;93909.03;;;4.41
45976;BMP280;31696;42.668;23.322;2023-03-12T04:47:57;93908.44;;;4.48
45976;BMP280;31696;42.668;23.322;2023-03-12T04:49:58;93952.84;;;4.48
45976;BMP280;31696;42.668;23.322;2023-03-12T04:51:58;93909.28;;;4.30
45976;BMP280;31696;42.668;23.322;2023-03-12T04:53:59;93915.56;;;4.42
45976;BMP280;31696;42.668;23.322;2023-03-12T04:56:00;93910.00;;;4.04
45976;BMP280;31696;42.668;23.322;2023-03-12T04:58:02;93907.22;;;4.28
45976;BMP280;31696;42.668;23.322;2023-03-12T05:00:03;93909.28;;;4.30
45976;BMP280;31696;42.668;23.322;2023-03-12T05:02:09;93922.94;;;3.72
45976;BMP280;31696;42.668;23.322;2023-03-12T05:04:09;93922.69;;;4.36
45976;BMP280;31696;42.668;23.322;2023-03-12T05:06:10;93921.03;;;4.38
45976;BMP280;31696;42.668;23.322;2023-03-12T05:08:10;93979.00;;;4.86
45976;BMP280;31696;42.668;23.322;2023-03-12T05:10:11;93947.81;;;3.64
45976;BMP280;31696;42.668;23.322;2023-03-12T05:12:12;93950.78;;;4.21
45976;BMP280;31696;42.668;23.322;2023-03-12T05:14:12;93941.09;;;4.53
45976;BMP280;31696;42.668;23.322;2023-03-12T05:16:14;93940.16;;;4.03
45976;BMP280;31696;42.668;23.322;2023-03-12T05:18:14;93936.09;;;4.34
45976;BMP280;31696;42.668;23.322;2023-03-12T05:20:15;93987.38;;;4.40
45976;BMP280;31696;42.668;23.322;2023-03-12T05:22:18;93945.47;;;4.32
45976;BMP280;31696;42.668;23.322;2023-03-12T05:24:18;93950.00;;;4.26
45976;BMP280;31696;42.668;23.322;2023-03-12T05:26:22;93950.59;;;4.19
45976;BMP280;31696;42.668;23.322;2023-03-12T05:28:24;93959.66;;;4.59
45976;BMP280;31696;42.668;23.322;2023-03-12T05:30:29;93960.66;;;4.56
45976;BMP280;31696;42.668;23.322;2023-03-12T05:32:30;93956.66;;;4.68
45976;BMP280;31696;42.668;23.322;2023-03-12T05:34:30;93963.22;;;4.43
45976;BMP280;31696;42.668;23.322;2023-03-12T05:36:31;93959.19;;;4.47
45976;BMP280;31696;42.668;23.322;2023-03-12T05:38:33;93963.03;;;4.54
45976;BMP280;31696;42.668;23.322;2023-03-12T05:40:33;93969.91;;;4.72
45976;BMP280;31696;42.668;23.322;2023-03-12T05:42:33;93971.59;;;4.70
45976;BMP280;31696;42.668;23.322;2023-03-12T05:44:34;93975.06;;;4.59
45976;BMP280;31696;42.668;23.322;2023-03-12T05:46:35;93968.88;;;4.88
45976;BMP280;31696;42.668;23.322;2023-03-12T05:48:36;93979.38;;;4.90
45976;BMP280;31696;42.668;23.322;2023-03-12T05:50:37;93977.16;;;4.61
45976;BMP280;31696;42.668;23.322;2023-03-12T05:52:37;93977.13;;;4.87
45976;BMP280;31696;42.668;23.322;2023-03-12T05:54:38;93988.53;;;4.65
45976;BMP280;31696;42.668;23.322;2023-03-12T05:56:39;93986.94;;;4.36
45976;BMP280;31696;42.668;23.322;2023-03-12T05:58:40;93994.38;;;5.00
45976;BMP280;31696;42.668;23.322;2023-03-12T06:00:41;93988.13;;;4.61
45976;BMP280;31696;42.668;23.322;2023-03-12T06:02:45;94007.28;;;4.86
45976;BMP280;31696;42.668;23.322;2023-03-12T06:04:45;93999.06;;;5.22
45976;BMP280;31696;42.668;23.322;2023-03-12T06:06:46;94012.97;;;4.92
45976;BMP280;31696;42.668;23.322;2023-03-12T06:08:47;94013.75;;;5.55
45976;BMP280;31696;42.668;23.322;2023-03-12T06:10:51;94020.94;;;5.57
45976;BMP280;31696;42.668;23.322;2023-03-12T06:12:53;94084.03;;;6.33
45976;BMP280;31696;42.668;23.322;2023-03-12T06:14:54;94021.53;;;5.42
45976;BMP280;31696;42.668;23.322;2023-03-12T06:16:56;94073.31;;;6.57
45976;BMP280;31696;42.668;23.322;2023-03-12T06:18:58;94079.09;;;6.78
45976;BMP280;31696;42.668;23.322;2023-03-12T06:23:08;94083.00;;;7.23
45976;BMP280;31696;42.668;23.322;2023-03-12T06:25:09;94031.91;;;7.29
45976;BMP280;31696;42.668;23.322;2023-03-12T06:27:09;94026.91;;;7.31
45976;BMP280;31696;42.668;23.322;2023-03-12T06:29:10;94042.53;;;7.18
45976;BMP280;31696;42.668;23.322;2023-03-12T06:31:10;94092.56;;;7.58
45976;BMP280;31696;42.668;23.322;2023-03-12T06:33:11;94044.50;;;7.48
45976;BMP280;31696;42.668;23.322;2023-03-12T06:35:11;94051.03;;;7.56
45976;BMP280;31696;42.668;23.322;2023-03-12T06:37:12;94048.94;;;7.55
45976;BMP280;31696;42.668;23.322;2023-03-12T06:39:12;94039.63;;;7.44
45976;BMP280;31696;42.668;23.322;2023-03-12T06:41:14;94052.38;;;7.42
45976;BMP280;31696;42.668;23.322;2023-03-12T06:43:14;94101.66;;;7.89
45976;BMP280;31696;42.668;23.322;2023-03-12T06:45:15;94067.22;;;7.95
45976;BMP280;31696;42.668;23.322;2023-03-12T06:47:15;94113.66;;;8.55
45976;BMP280;31696;42.668;23.322;2023-03-12T06:49:16;94112.34;;;8.24
45976;BMP280;31696;42.668;23.322;2023-03-12T06:51:16;94122.28;;;8.50
45976;BMP280;31696;42.668;23.322;2023-03-12T06:53:17;94115.63;;;8.79
45976;BMP280;31696;42.668;23.322;2023-03-12T06:55:18;94121.91;;;9.41
45976;BMP280;31696;42.668;23.322;2023-03-12T06:57:18;94087.88;;;8.72
45976;BMP280;31696;42.668;23.322;2023-03-12T06:59:18;94127.03;;;8.76
45976;BMP280;31696;42.668;23.322;2023-03-12T07:01:21;94090.94;;;9.26
45976;BMP280;31696;42.668;23.322;2023-03-12T07:03:21;94086.84;;;9.15
45976;BMP280;31696;42.668;23.322;2023-03-12T07:05:22;94137.66;;;9.35
45976;BMP280;31696;42.668;23.322;2023-03-12T07:07:22;94140.44;;;9.62
45976;BMP280;31696;42.668;23.322;2023-03-12T07:09:23;94143.81;;;9.72
45976;BMP280;31696;42.668;23.322;2023-03-12T07:11:23;94097.00;;;9.45
45976;BMP280;31696;42.668;23.322;2023-03-12T07:13:24;94152.75;;;10.21
45976;BMP280;31696;42.668;23.322;2023-03-12T07:15:24;94153.31;;;9.94
45976;BMP280;31696;42.668;23.322;2023-03-12T07:17:24;94159.31;;;10.90
45976;BMP280;31696;42.668;23.322;2023-03-12T07:19:26;94162.81;;;11.29
45976;BMP280;31696;42.668;23.322;2023-03-12T07:21:29;94166.16;;;11.76
45976;BMP280;31696;42.668;23.322;2023-03-12T07:23:32;94172.84;;;11.69
45976;BMP280;31696;42.668;23.322;2023-03-12T07:25:40;94169.63;;;11.97
45976;BMP280;31696;42.668;23.322;2023-03-12T07:27:40;94167.88;;;13.36
45976;BMP280;31696;42.668;23.322;2023-03-12T07:29:40;94171.72;;;13.35
45976;BMP280;31696;42.668;23.322;2023-03-12T07:31:41;94172.72;;;13.61
45976;BMP280;31696;42.668;23.322;2023-03-12T07:33:41;94132.25;;;12.50
45976;BMP280;31696;42.668;23.322;2023-03-12T07:35:42;94174.34;;;14.29
45976;BMP280;31696;42.668;23.322;2023-03-12T07:37:42;94174.06;;;13.31
45976;BMP280;31696;42.668;23.322;2023-03-12T07:39:43;94123.91;;;12.33
45976;BMP280;31696;42.668;23.322;2023-03-12T07:41:44;94118.81;;;12.63
45976;BMP280;31696;42.668;23.322;2023-03-12T07:43:44;94170.84;;;13.82
45976;BMP280;31696;42.668;23.322;2023-03-12T07:45:45;94190.25;;;14.55
45976;BMP280;31696;42.668;23.322;2023-03-12T07:47:45;94194.47;;;14.60
45976;BMP280;31696;42.668;23.322;2023-03-12T07:49:46;94134.53;;;12.94
45976;BMP280;31696;42.668;23.322;2023-03-12T07:51:46;94141.22;;;12.97
45976;BMP280;31696;42.668;23.322;2023-03-12T07:53:47;94189.47;;;14.10
45976;BMP280;31696;42.668;23.322;2023-03-12T07:55:48;94201.47;;;14.03
45976;BMP280;31696;42.668;23.322;2023-03-12T07:57:48;94203.81;;;13.99
45976;BMP280;31696;42.668;23.322;2023-03-12T07:59:49;94208.31;;;13.87
45976;BMP280;31696;42.668;23.322;2023-03-12T08:01:49;94214.63;;;14.05
45976;BMP280;31696;42.668;23.322;2023-03-12T08:03:50;94198.75;;;14.43
45976;BMP280;31696;42.668;23.322;2023-03-12T08:05:57;94205.97;;;13.51
45976;BMP280;31696;42.668;23.322;2023-03-12T08:07:57;94143.66;;;13.76
45976;BMP280;31696;42.668;23.322;2023-03-12T08:09:58;94152.19;;;13.15
45976;BMP280;31696;42.668;23.322;2023-03-12T08:11:59;94200.78;;;13.51
45976;BMP280;31696;42.668;23.322;2023-03-12T08:13:59;94209.66;;;13.88
45976;BMP280;31696;42.668;23.322;2023-03-12T08:16:00;94160.66;;;14.40
45976;BMP280;31696;42.668;23.322;2023-03-12T08:18:00;94212.19;;;14.28
45976;BMP280;31696;42.668;23.322;2023-03-12T08:20:00;94226.69;;;13.89
45976;BMP280;31696;42.668;23.322;2023-03-12T08:22:01;94234.44;;;14.08
45976;BMP280;31696;42.668;23.322;2023-03-12T08:24:01;94238.06;;;13.93
45976;BMP280;31696;42.668;23.322;2023-03-12T08:26:02;94244.94;;;14.95
45976;BMP280;31696;42.668;23.322;2023-03-12T08:28:03;94255.88;;;15.03
45976;BMP280;31696;42.668;23.322;2023-03-12T08:30:04;94249.19;;;14.79
45976;BMP280;31696;42.668;23.322;2023-03-12T08:32:05;94243.63;;;15.29
45976;BMP280;31696;42.668;23.322;2023-03-12T08:34:06;94190.25;;;13.70
45976;BMP280;31696;42.668;23.322;2023-03-12T08:36:06;94241.81;;;15.43
45976;BMP280;31696;42.668;23.322;2023-03-12T08:38:07;94242.44;;;14.97
45976;BMP280;31696;42.668;23.322;2023-03-12T08:40:07;94253.53;;;15.42
45976;BMP280;31696;42.668;23.322;2023-03-12T08:42:12;94266.88;;;15.81
45976;BMP280;31696;42.668;23.322;2023-03-12T08:44:12;94258.44;;;16.05
45976;BMP280;31696;42.668;23.322;2023-03-12T08:46:13;94262.75;;;15.20
45976;BMP280;31696;42.668;23.322;2023-03-12T08:48:13;94264.41;;;14.28
45976;BMP280;31696;42.668;23.322;2023-03-12T08:50:14;94251.63;;;14.98
45976;BMP280;31696;42.668;23.322;2023-03-12T08:52:15;94250.47;;;15.57
45976;BMP280;31696;42.668;23.322;2023-03-12T08:54:16;94263.22;;;15.51
45976;BMP280;31696;42.668;23.322;2023-03-12T08:56:17;94262.84;;;16.03
45976;BMP280;31696;42.668;23.322;2023-03-12T08:58:17;94213.78;;;14.99
45976;BMP280;31696;42.668;23.322;2023-03-12T09:00:18;94285.44;;;15.61
45976;BMP280;31696;42.668;23.322;2023-03-12T09:02:18;94276.09;;;15.58
45976;BMP280;31696;42.668;23.322;2023-03-12T09:04:19;94277.25;;;14.57
45976;BMP280;31696;42.668;23.322;2023-03-12T09:06:19;94274.81;;;15.59
45976;BMP280;31696;42.668;23.322;2023-03-12T09:08:20;94282.13;;;16.07
45976;BMP280;31696;42.668;23.322;2023-03-12T09:10:20;94269.47;;;15.57
45976;BMP280;31696;42.668;23.322;2023-03-12T09:12:21;94272.28;;;15.27
45976;BMP280;31696;42.668;23.322;2023-03-12T09:14:21;94272.19;;;13.17
45976;BMP280;31696;42.668;23.322;2023-03-12T09:16:22;94224.41;;;14.47
45976;BMP280;31696;42.668;23.322;2023-03-12T09:18:22;94277.31;;;14.90
45976;BMP280;31696;42.668;23.322;2023-03-12T09:20:23;94224.50;;;11.82
45976;BMP280;31696;42.668;23.322;2023-03-12T09:22:24;94284.44;;;15.22
45976;BMP280;31696;42.668;23.322;2023-03-12T09:24:25;94212.91;;;14.40
45976;BMP280;31696;42.668;23.322;2023-03-12T09:26:25;94225.28;;;11.75
45976;BMP280;31696;42.668;23.322;2023-03-12T09:28:25;94221.16;;;13.95
45976;BMP280;31696;42.668;23.322;2023-03-12T09:30:26;94249.34;;;15.25
45976;BMP280;31696;42.668;23.322;2023-03-12T09:32:29;94209.94;;;14.13
45976;BMP280;31696;42.668;23.322;2023-03-12T09:34:29;94271.81;;;14.32
45976;BMP280;31696;42.668;23.322;2023-03-12T09:36:29;94268.84;;;13.55
45976;BMP280;31696;42.668;23.322;2023-03-12T09:38:30;94228.53;;;13.37
45976;BMP280;31696;42.668;23.322;2023-03-12T09:40:31;94221.06;;;12.83
45976;BMP280;31696;42.668;23.322;2023-03-12T09:44:34;94213.56;;;12.68
45976;BMP280;31696;42.668;23.322;2023-03-12T09:48:45;94204.50;;;13.38
45976;BMP280;31696;42.668;23.322;2023-03-12T09:50:47;94211.88;;;13.01
45976;BMP280;31696;42.668;23.322;2023-03-12T09:52:50;94211.59;;;12.21
45976;BMP280;31696;42.668;23.322;2023-03-12T09:57:15;94213.22;;;12.26
45976;BMP280;31696;42.668;23.322;2023-03-12T09:59:18;94217.84;;;11.98
45976;BMP280;31696;42.668;23.322;2023-03-12T10:01:27;94208.69;;;12.16
45976;BMP280;31696;42.668;23.322;2023-03-12T10:07:47;94208.97;;;12.30
45976;BMP280;31696;42.668;23.322;2023-03-12T10:16:39;94246.88;;;12.04
45976;BMP280;31696;42.668;23.322;2023-03-12T10:18:49;94244.88;;;12.12
45976;BMP280;31696;42.668;23.322;2023-03-12T10:27:36;94174.47;;;11.38
45976;BMP280;31696;42.668;23.322;2023-03-12T10:29:38;94197.63;;;10.31
45976;BMP280;31696;42.668;23.322;2023-03-12T10:31:50;94197.38;;;10.78
45976;BMP280;31696;42.668;23.322;2023-03-12T10:33:52;94249.28;;;12.29
45976;BMP280;31696;42.668;23.322;2023-03-12T10:35:54;94245.53;;;12.03
45976;BMP280;31696;42.668;23.322;2023-03-12T10:39:55;94250.31;;;11.00
45976;BMP280;31696;42.668;23.322;2023-03-12T10:41:55;94249.16;;;11.11
45976;BMP280;31696;42.668;23.322;2023-03-12T10:44:00;94249.28;;;11.30
45976;BMP280;31696;42.668;23.322;2023-03-12T10:48:18;94261.69;;;11.04
45976;BMP280;31696;42.668;23.322;2023-03-12T10:50:20;94208.88;;;11.02
45976;BMP280;31696;42.668;23.322;2023-03-12T10:52:21;94249.84;;;11.55
45976;BMP280;31696;42.668;23.322;2023-03-12T10:54:36;94191.97;;;10.25
45976;BMP280;31696;42.668;23.322;2023-03-12T10:56:47;94245.47;;;11.14
45976;BMP280;31696;42.668;23.322;2023-03-12T10:58:51;94197.63;;;10.31
45976;BMP280;31696;42.668;23.322;2023-03-12T11:00:58;94205.91;;;10.37
45976;BMP280;31696;42.668;23.322;2023-03-12T11:03:05;94240.44;;;10.64
45976;BMP280;31696;42.668;23.322;2023-03-12T11:05:19;94239.69;;;10.88
45976;BMP280;31696;42.668;23.322;2023-03-12T11:07:30;94183.13;;;10.96
45976;BMP280;31696;42.668;23.322;2023-03-12T11:09:30;94185.69;;;10.52
45976;BMP280;31696;42.668;23.322;2023-03-12T11:11:32;94191.53;;;10.19
45976;BMP280;31696;42.668;23.322;2023-03-12T11:13:34;94189.28;;;10.74
45976;BMP280;31696;42.668;23.322;2023-03-12T11:17:35;94242.81;;;10.87
45976;BMP280;31696;42.668;23.322;2023-03-12T11:19:35;94242.16;;;10.03
45976;BMP280;31696;42.668;23.322;2023-03-12T11:21:36;94184.63;;;9.64
45976;BMP280;31696;42.668;23.322;2023-03-12T11:23:38;94235.38;;;10.66
45976;BMP280;31696;42.668;23.322;2023-03-12T11:25:39;94240.16;;;9.93
45976;BMP280;31696;42.668;23.322;2023-03-12T11:27:41;94226.97;;;10.41
45976;BMP280;31696;42.668;23.322;2023-03-12T11:29:43;94182.56;;;10.54
45976;BMP280;31696;42.668;23.322;2023-03-12T11:32:03;94243.59;;;9.96
45976;BMP280;31696;42.668;23.322;2023-03-12T11:34:07;94248.50;;;10.34
45976;BMP280;31696;42.668;23.322;2023-03-12T11:38:31;94234.09;;;9.59
45976;BMP280;31696;42.668;23.322;2023-03-12T11:45:07;94192.19;;;10.44
45976;BMP280;31696;42.668;23.322;2023-03-12T11:49:26;94220.28;;;10.55
45976;BMP280;31696;42.668;23.322;2023-03-12T12:00:17;94157.91;;;9.86
45976;BMP280;31696;42.668;23.322;2023-03-12T12:11:01;94159.31;;;10.56
45976;BMP280;31696;42.668;23.322;2023-03-12T12:17:49;94220.72;;;10.44
45976;BMP280;31696;42.668;23.322;2023-03-12T12:19:43;94225.59;;;10.40
45976;BMP280;31696;42.668;23.322;2023-03-12T12:32:06;94180.50;;;9.93
45976;BMP280;31696;42.668;23.322;2023-03-12T12:36:31;94173.53;;;10.21
45976;BMP280;31696;42.668;23.322;2023-03-12T12:38:34;94179.78;;;10.18
45976;BMP280;31696;42.668;23.322;2023-03-12T12:40:37;94230.03;;;10.81
45976;BMP280;31696;42.668;23.322;2023-03-12T12:42:47;94226.38;;;10.67
45976;BMP280;31696;42.668;23.322;2023-03-12T12:44:50;94165.94;;;9.09
45976;BMP280;31696;42.668;23.322;2023-03-12T12:46:53;94178.72;;;7.83
45976;BMP280;31696;42.668;23.322;2023-03-12T12:51:05;94166.13;;;9.43
45976;BMP280;31696;42.668;23.322;2023-03-12T12:55:18;94157.16;;;9.93
45976;BMP280;31696;42.668;23.322;2023-03-12T13:01:31;94168.75;;;10.10
45976;BMP280;31696;42.668;23.322;2023-03-12T13:03:33;94161.56;;;10.00
45976;BMP280;31696;42.668;23.322;2023-03-12T13:07:35;94165.88;;;10.06